Time;durP1;ratioP1;P1;durP2;ratioP2;P2;SDS_P1;SDS_P2;PMS_P1;PMS_P2;Temp;Humidity;BMP_temperature;BMP_pressure;BME280_temperature;BME280_humidity;BME280_pressure;Samples;Min_cycle;Max_cycle;Signal;HPM_P1;HPM_P2
2023/03/08 00:02:47;;;;;;;7.40;4.15;;;;;;;2.21;66.75;98387.41;30616223;28;96666;-64
2023/03/08 00:17:47;;;;;;;9.88;6.20;;;;;;;2.20;67.93;98407.63;30614225;28;97311;-64
2023/03/08 00:32:48;;;;;;;11.70;6.45;;;;;;;1.97;68.08;98403.91;30614088;28;96622;-62
2023/03/08 00:47:48;;;;;;;9.73;5.03;;;;;;;1.81;68.66;98409.94;30612272;28;96729;-62
2023/03/08 01:02:48;;;;;;;8.98;3.78;;;;;;;1.66;69.30;98422.84;30611578;28;96740;-62
2023/03/08 01:17:49;;;;;;;7.25;4.10;;;;;;;1.60;69.65;98453.16;30613782;28;96917;-62
2023/03/08 01:32:49;;;;;;;5.30;3.63;;;;;;;1.46;69.95;98451.09;30630285;28;97593;-63
2023/03/08 01:47:50;;;;;;;5.05;3.58;;;;;;;1.32;70.21;98449.88;30628340;28;96719;-63
2023/03/08 02:02:58;;;;;;;4.55;2.30;;;;;;;1.22;70.44;98481.44;30627726;28;96891;-63
2023/03/08 02:17:58;;;;;;;5.45;2.70;;;;;;;1.10;70.81;98493.16;30625833;28;97333;-62
2023/03/08 02:32:59;;;;;;;4.05;2.28;;;;;;;0.99;71.21;98495.03;30624406;28;96675;-63
2023/03/08 02:48:03;;;;;;;2.45;1.73;;;;;;;0.85;71.22;98519.16;30623073;28;96631;-63
2023/03/08 03:03:04;;;;;;;6.50;1.63;;;;;;;0.79;71.35;98533.69;30622029;28;96613;-63
2023/03/08 03:18:04;;;;;;;3.85;1.80;;;;;;;0.71;71.62;98535.38;30620275;28;97195;-63
2023/03/08 03:33:05;;;;;;;2.97;1.65;;;;;;;0.67;71.94;98554.03;30618890;28;96653;-63
2023/03/08 03:48:05;;;;;;;3.35;1.83;;;;;;;0.74;71.92;98583.09;30615420;28;96568;-62
2023/03/08 04:03:06;;;;;;;4.40;1.83;;;;;;;0.23;72.02;98589.69;30615772;28;96662;-62
2023/03/08 04:18:06;;;;;;;5.00;1.95;;;;;;;0.03;72.85;98617.72;30613594;28;96698;-61
2023/03/08 04:33:07;;;;;;;3.38;1.95;;;;;;;-0.18;73.28;98608.25;30611145;28;96705;-63
2023/03/08 04:48:07;;;;;;;3.28;2.20;;;;;;;-0.21;73.82;98613.75;30610695;28;96854;-63
2023/03/08 05:03:08;;;;;;;3.83;1.85;;;;;;;-0.36;74.33;98615.97;30628246;28;96661;-62
2023/03/08 05:18:08;;;;;;;5.30;2.60;;;;;;;-0.39;74.66;98622.31;30627933;28;96708;-63
2023/03/08 05:33:09;;;;;;;8.27;3.28;;;;;;;-0.29;75.04;98643.25;30627180;28;97326;-63
2023/03/08 05:48:09;;;;;;;7.00;3.45;;;;;;;-0.26;75.21;98668.31;30625395;28;97071;-64
2023/03/08 06:03:09;;;;;;;6.13;2.97;;;;;;;-0.03;75.52;98658.38;30622832;28;96649;-60
2023/03/08 06:18:10;;;;;;;9.25;3.65;;;;;;;0.12;74.92;98674.47;30623437;28;96809;-63
2023/03/08 06:33:10;;;;;;;9.32;4.40;;;;;;;0.70;75.72;98696.25;30620147;28;96662;-63
2023/03/08 06:48:11;;;;;;;12.35;3.83;;;;;;;1.09;74.74;98715.25;30617859;28;96725;-63
2023/03/08 07:03:12;;;;;;;12.35;5.05;;;;;;;1.39;74.63;98722.97;30618015;28;97254;-64
2023/03/08 07:18:12;;;;;;;17.00;7.70;;;;;;;2.23;73.85;98721.78;30616992;28;96965;-64
2023/03/08 07:33:13;;;;;;;5.00;2.85;;;;;;;2.78;72.90;98727.72;30615992;28;96574;-64
2023/03/08 07:48:14;;;;;;;6.60;4.43;;;;;;;3.14;71.39;98744.16;30613322;28;96832;-65
2023/03/08 08:03:14;;;;;;;8.50;3.60;;;;;;;3.00;71.07;98742.94;30612476;28;96638;-65
2023/03/08 08:18:15;;;;;;;8.95;4.47;;;;;;;3.49;69.49;98744.94;30610741;28;96841;-65
2023/03/08 08:33:15;;;;;;;9.30;4.88;;;;;;;3.51;70.43;98761.44;30610006;28;97036;-64
2023/03/08 08:48:15;;;;;;;7.80;4.75;;;;;;;3.31;69.31;98750.31;30608633;28;96777;-64
2023/03/08 09:03:16;;;;;;;9.82;4.35;;;;;;;3.80;68.65;98741.75;30607850;28;96957;-64
2023/03/08 09:18:16;;;;;;;8.98;4.10;;;;;;;5.86;67.59;98735.13;30607145;28;96690;-65
2023/03/08 09:33:17;;;;;;;6.28;3.33;;;;;;;9.03;64.56;98715.63;30605709;28;96612;-64
2023/03/08 09:48:24;;;;;;;4.18;2.80;;;;;;;12.01;54.50;98711.38;30622487;28;97235;-64
2023/03/08 10:03:46;;;;;;;6.97;3.87;;;;;;;9.71;51.52;98693.63;30624108;28;97327;-65
2023/03/08 10:18:46;;;;;;;7.37;4.23;;;;;;;9.89;51.99;98680.53;30623322;28;96741;-65
2023/03/08 10:33:49;;;;;;;7.47;5.07;;;;;;;7.76;54.12;98667.72;30620901;28;96711;-64
2023/03/08 10:48:51;;;;;;;12.67;5.47;;;;;;;6.60;55.69;98655.16;30621108;28;96707;-65
2023/03/08 11:04:15;;;;;;;12.20;6.10;;;;;;;5.37;56.97;98646.41;30619454;28;96609;-65
2023/03/08 11:19:18;;;;;;;9.07;5.35;;;;;;;4.55;59.05;98621.25;30618000;28;97532;-64
2023/03/08 11:34:23;;;;;;;8.18;5.00;;;;;;;4.14;60.20;98587.91;30616332;28;96696;-64
2023/03/08 11:49:43;;;;;;;7.80;4.68;;;;;;;4.32;61.29;98574.53;30613609;28;96765;-64
2023/03/08 12:04:46;;;;;;;5.80;3.45;;;;;;;8.78;57.35;98540.88;30611856;28;96649;-65
2023/03/08 12:19:49;;;;;;;5.17;3.67;;;;;;;7.02;56.04;98520.47;30611776;28;96628;-65
2023/03/08 12:35:21;;;;;;;7.13;4.47;;;;;;;6.49;57.34;98488.94;30609226;28;97191;-65
2023/03/08 12:50:23;;;;;;;8.20;4.80;;;;;;;5.90;58.41;98472.09;30598234;28;96702;-65
2023/03/08 13:05:30;;;;;;;7.53;4.60;;;;;;;5.78;59.08;98437.38;30606782;28;96972;-64
2023/03/08 13:20:40;;;;;;;7.20;4.22;;;;;;;7.50;57.19;98419.22;30620874;28;96982;-65
2023/03/08 13:35:40;;;;;;;9.38;5.57;;;;;;;6.51;57.03;98397.00;30626641;28;96613;-64
2023/03/08 13:50:43;;;;;;;11.93;6.80;;;;;;;6.20;58.92;98369.00;30625219;28;96733;-65
2023/03/08 14:05:44;;;;;;;13.98;8.63;;;;;;;5.87;59.62;98349.06;30623961;28;97443;-65
2023/03/08 14:20:44;;;;;;;14.75;8.88;;;;;;;5.58;60.85;98334.09;30621832;28;97246;-64
2023/03/08 14:35:56;;;;;;;15.75;10.50;;;;;;;5.41;61.82;98331.66;30620755;28;96724;-64
2023/03/08 14:51:02;;;;;;;12.18;7.55;;;;;;;4.97;63.15;98318.41;30619531;28;96956;-64
2023/03/08 15:06:12;;;;;;;13.93;7.50;;;;;;;4.60;63.86;98310.34;30620292;28;97273;-65
2023/03/08 15:21:17;;;;;;;13.45;8.75;;;;;;;4.50;65.13;98304.50;30616655;28;97288;-64
2023/03/08 15:36:18;;;;;;;14.85;8.10;;;;;;;4.29;65.93;98284.91;30614188;28;97435;-64
2023/03/08 15:51:20;;;;;;;13.32;7.45;;;;;;;4.03;67.17;98272.06;30612155;28;98002;-66
2023/03/08 16:06:22;;;;;;;15.77;9.25;;;;;;;3.97;67.95;98257.78;30611950;28;96729;-63
2023/03/08 16:21:23;;;;;;;13.68;8.27;;;;;;;3.97;68.72;98239.31;30610663;28;96660;-64
2023/03/08 16:36:23;;;;;;;19.95;11.88;;;;;;;3.88;69.73;98216.66;30611304;28;96682;-63
2023/03/08 16:51:27;;;;;;;28.02;14.32;;;;;;;3.80;70.33;98222.00;30625754;28;96812;-65
2023/03/08 17:06:31;;;;;;;19.03;10.20;;;;;;;3.80;70.39;98196.50;30648013;28;96689;-64
2023/03/08 17:21:36;;;;;;;19.80;10.60;;;;;;;3.69;71.52;98179.28;30646405;28;97395;-64
2023/03/08 17:36:37;;;;;;;20.17;11.07;;;;;;;3.60;71.58;98155.81;30646741;28;97119;-64
2023/03/08 17:51:38;;;;;;;19.63;12.18;;;;;;;3.57;72.31;98141.19;30646192;28;96533;-64
2023/03/08 18:06:41;;;;;;;20.42;11.95;;;;;;;3.58;72.60;98115.66;30631026;28;97224;-64
2023/03/08 18:21:41;;;;;;;16.87;10.07;;;;;;;3.52;73.13;98094.31;30654921;28;96666;-63
2023/03/08 18:36:42;;;;;;;18.35;11.27;;;;;;;3.50;73.60;98087.56;30622297;28;96775;-64
2023/03/08 18:51:42;;;;;;;18.77;10.82;;;;;;;3.47;73.79;98072.13;30618190;28;96959;-64
2023/03/08 19:06:43;;;;;;;23.17;11.25;;;;;;;3.45;74.02;98046.00;30616507;28;96684;-64
2023/03/08 19:21:45;;;;;;;19.95;11.73;;;;;;;3.43;74.39;98023.47;30614384;28;98401;-63
2023/03/08 19:36:47;;;;;;;25.38;14.27;;;;;;;3.46;74.57;98023.13;30614614;28;97137;-63
2023/03/08 19:51:54;;;;;;;30.60;15.20;;;;;;;3.41;74.86;98017.59;30614048;28;97417;-65
2023/03/08 20:06:59;;;;;;;29.90;15.40;;;;;;;3.36;74.98;98024.19;30613263;28;96962;-64
2023/03/08 20:22:01;;;;;;;33.05;18.35;;;;;;;3.41;75.11;98017.59;30613103;28;96658;-64
2023/03/08 20:37:01;;;;;;;39.75;18.88;;;;;;;3.46;75.31;98016.06;30612319;28;97530;-64
2023/03/08 20:52:02;;;;;;;40.60;17.92;;;;;;;3.42;75.18;97996.34;30609987;28;96769;-63
2023/03/08 21:07:05;;;;;;;24.00;13.45;;;;;;;3.38;75.67;97987.97;30608410;28;96651;-63
2023/03/08 21:22:06;;;;;;;23.67;15.82;;;;;;;3.19;75.56;97981.41;30608569;28;96702;-63
2023/03/08 21:37:06;;;;;;;31.05;15.07;;;;;;;3.13;76.04;97971.59;30613817;28;96610;-63
2023/03/08 21:52:06;;;;;;;28.25;18.15;;;;;;;3.20;76.25;97983.03;30626362;28;96775;-64
2023/03/08 22:07:07;;;;;;;39.20;20.10;;;;;;;3.25;76.50;97969.34;30626485;28;96706;-64
2023/03/08 22:22:09;;;;;;;33.33;19.50;;;;;;;3.32;76.61;97974.72;30624858;28;96768;-63
2023/03/08 22:37:10;;;;;;;37.95;19.55;;;;;;;3.42;76.73;97969.19;30624139;28;97045;-64
2023/03/08 22:52:10;;;;;;;32.22;19.13;;;;;;;3.39;76.65;97965.94;30622534;28;96860;-64
2023/03/08 23:07:11;;;;;;;35.17;22.73;;;;;;;3.41;77.12;97964.94;30621947;28;96682;-64
2023/03/08 23:22:11;;;;;;;27.25;17.27;;;;;;;3.37;76.92;97956.59;30620539;28;97467;-63
2023/03/08 23:37:12;;;;;;;34.38;20.63;;;;;;;3.25;77.00;97956.19;30618765;28;97437;-64
2023/03/08 23:52:12;;;;;;;44.63;23.73;;;;;;;3.35;77.28;97951.50;30617438;28;97100;-64
